createdAt,value
2022-09-25T00:00:24.081Z,100.00
2022-09-25T00:03:11.386Z,100.00
2022-09-25T00:06:21.225Z,100.00
2022-09-25T00:09:09.833Z,100.00
2022-09-25T00:11:55.583Z,100.00
2022-09-25T00:14:40.872Z,100.00
2022-09-25T00:17:26.234Z,100.00
2022-09-25T00:20:11.143Z,100.00
2022-09-25T00:22:56.575Z,100.00
2022-09-25T00:25:42.024Z,100.00
2022-09-25T00:28:27.615Z,100.00
2022-09-25T00:31:19.380Z,100.00
2022-09-25T00:34:06.000Z,100.00
2022-09-25T00:36:51.068Z,100.00
2022-09-25T00:39:36.097Z,100.00
2022-09-25T00:42:23.239Z,100.00
2022-09-25T00:45:20.860Z,100.00
2022-09-25T00:48:09.347Z,100.00
2022-09-25T00:50:57.389Z,100.00
2022-09-25T00:53:42.488Z,100.00
2022-09-25T00:56:31.722Z,100.00
2022-09-25T00:59:21.283Z,100.00
2022-09-25T01:02:10.525Z,100.00
2022-09-25T01:04:59.784Z,100.00
2022-09-25T01:07:48.246Z,100.00
2022-09-25T01:10:33.370Z,100.00
2022-09-25T01:13:19.330Z,100.00
2022-09-25T01:16:14.058Z,100.00
2022-09-25T01:19:25.659Z,100.00
2022-09-25T01:22:22.880Z,100.00
2022-09-25T01:25:29.088Z,100.00
2022-09-25T01:28:17.199Z,100.00
2022-09-25T01:31:08.647Z,100.00
2022-09-25T01:34:00.618Z,100.00
2022-09-25T01:36:52.622Z,100.00
2022-09-25T01:39:45.280Z,100.00
2022-09-25T01:42:37.110Z,100.00
2022-09-25T01:45:36.933Z,100.00
2022-09-25T01:48:30.559Z,100.00
2022-09-25T01:51:21.212Z,100.00
2022-09-25T01:54:14.252Z,100.00
2022-09-25T01:57:39.187Z,100.00
2022-09-25T02:00:25.492Z,100.00
2022-09-25T02:03:24.267Z,100.00
2022-09-25T02:06:14.403Z,100.00
2022-09-25T02:09:04.627Z,100.00
2022-09-25T02:11:56.309Z,100.00
2022-09-25T02:14:51.022Z,100.00
2022-09-25T02:17:44.514Z,100.00
2022-09-25T02:20:35.007Z,100.00
2022-09-25T02:23:44.552Z,100.00
2022-09-25T02:26:33.488Z,100.00
2022-09-25T02:29:19.836Z,100.00
2022-09-25T02:32:11.595Z,100.00
2022-09-25T02:34:58.367Z,100.00
2022-09-25T02:37:43.704Z,100.00
2022-09-25T02:40:55.227Z,100.00
2022-09-25T02:44:07.182Z,100.00
2022-09-25T02:46:58.162Z,100.00
2022-09-25T02:49:49.061Z,100.00
2022-09-25T02:53:04.045Z,100.00
2022-09-25T02:56:24.636Z,100.00
2022-09-25T02:59:16.666Z,100.00
2022-09-25T03:02:02.375Z,100.00
2022-09-25T03:04:49.961Z,100.00
2022-09-25T03:07:34.925Z,100.00
2022-09-25T03:10:20.494Z,100.00
2022-09-25T03:13:23.647Z,100.00
2022-09-25T03:16:22.165Z,100.00
2022-09-25T03:19:07.940Z,100.00
2022-09-25T03:21:52.865Z,100.00
2022-09-25T03:24:37.777Z,100.00
2022-09-25T03:27:23.176Z,100.00
2022-09-25T03:30:08.701Z,100.00
2022-09-25T03:32:53.700Z,100.00
2022-09-25T03:35:39.388Z,100.00
2022-09-25T03:38:24.529Z,100.00
2022-09-25T03:41:11.331Z,100.00
2022-09-25T03:43:57.092Z,100.00
2022-09-25T03:46:42.331Z,100.00
2022-09-25T03:49:27.298Z,100.00
2022-09-25T03:52:12.270Z,100.00
2022-09-25T03:54:57.480Z,100.00
2022-09-25T03:57:42.657Z,100.00
2022-09-25T04:00:27.810Z,100.00
2022-09-25T04:03:16.848Z,100.00
2022-09-25T04:06:04.279Z,100.00
2022-09-25T04:08:50.536Z,100.00
2022-09-25T04:11:35.464Z,100.00
2022-09-25T04:14:20.425Z,100.00
2022-09-25T04:17:05.356Z,100.00
2022-09-25T04:19:50.617Z,100.00
2022-09-25T04:22:35.995Z,100.00
2022-09-25T04:25:24.408Z,100.00
2022-09-25T04:28:09.709Z,100.00
2022-09-25T04:30:54.593Z,100.00
2022-09-25T04:33:39.488Z,100.00
2022-09-25T04:36:24.957Z,100.00
2022-09-25T04:39:10.158Z,100.00
2022-09-25T04:41:54.891Z,100.00
2022-09-25T04:44:39.804Z,100.00
2022-09-25T04:47:27.895Z,100.00
2022-09-25T04:50:12.950Z,100.00
2022-09-25T04:52:58.406Z,100.00
2022-09-25T04:55:43.881Z,100.00
2022-09-25T04:58:29.058Z,100.00
2022-09-25T05:01:14.903Z,100.00
2022-09-25T05:04:01.887Z,100.00
2022-09-25T05:06:49.800Z,100.00
2022-09-25T05:09:34.721Z,100.00
2022-09-25T05:12:19.660Z,100.00
2022-09-25T05:15:05.437Z,100.00
2022-09-25T05:17:50.536Z,100.00
2022-09-25T05:20:35.956Z,100.00
2022-09-25T05:23:21.921Z,100.00
2022-09-25T05:26:07.205Z,100.00
2022-09-25T05:28:52.628Z,100.00
2022-09-25T05:31:37.531Z,100.00
2022-09-25T05:34:23.125Z,100.00
2022-09-25T05:37:08.004Z,100.00
2022-09-25T05:39:53.019Z,100.00
2022-09-25T05:42:38.131Z,100.00
2022-09-25T05:45:23.437Z,100.00
2022-09-25T05:48:09.420Z,100.00
2022-09-25T05:50:56.090Z,100.00
2022-09-25T05:53:41.486Z,100.00
2022-09-25T05:56:27.032Z,100.00
2022-09-25T05:59:12.175Z,100.00
2022-09-25T06:01:57.479Z,100.00
2022-09-25T06:04:43.097Z,100.00
2022-09-25T06:07:28.346Z,100.00
2022-09-25T06:10:13.224Z,100.00
2022-09-25T06:13:00.133Z,100.00
2022-09-25T06:15:45.046Z,100.00
2022-09-25T06:18:30.342Z,100.00
2022-09-25T06:21:15.495Z,100.00
2022-09-25T06:24:01.083Z,100.00
2022-09-25T06:26:46.022Z,100.00
2022-09-25T06:29:31.037Z,100.00
2022-09-25T06:32:16.098Z,100.00
2022-09-25T06:35:01.447Z,100.00
2022-09-25T06:37:46.315Z,100.00
2022-09-25T06:40:32.061Z,100.00
2022-09-25T06:43:17.105Z,100.00
2022-09-25T06:46:02.948Z,100.00
2022-09-25T06:48:52.418Z,100.00
2022-09-25T06:51:37.647Z,100.00
2022-09-25T06:54:22.602Z,100.00
2022-09-25T06:57:07.697Z,100.00
2022-09-25T06:59:52.599Z,100.00
2022-09-25T07:02:37.642Z,100.00
2022-09-25T07:05:22.471Z,100.00
2022-09-25T07:08:07.331Z,100.00
2022-09-25T07:10:54.439Z,100.00
2022-09-25T07:13:39.657Z,100.00
2022-09-25T07:16:27.836Z,100.00
2022-09-25T07:19:12.993Z,100.00
2022-09-25T07:21:58.202Z,100.00
2022-09-25T07:24:43.745Z,100.00
2022-09-25T07:27:30.098Z,100.00
2022-09-25T07:30:15.080Z,100.00
2022-09-25T07:33:00.363Z,100.00
2022-09-25T07:35:45.337Z,100.00
2022-09-25T07:38:30.625Z,100.00
2022-09-25T07:41:16.370Z,100.00
2022-09-25T07:44:18.019Z,100.00
2022-09-25T07:47:07.057Z,100.00
2022-09-25T07:49:52.338Z,100.00
2022-09-25T07:52:37.389Z,100.00
2022-09-25T07:55:22.763Z,100.00
2022-09-25T07:58:07.630Z,100.00
2022-09-25T08:01:00.269Z,100.00
2022-09-25T08:03:45.330Z,100.00
2022-09-25T08:06:34.316Z,100.00
2022-09-25T08:09:19.824Z,100.00
2022-09-25T08:12:04.819Z,100.00
2022-09-25T08:14:54.193Z,100.00
2022-09-25T08:17:39.633Z,100.00
2022-09-25T08:20:24.818Z,100.00
2022-09-25T08:23:09.825Z,100.00
2022-09-25T08:25:55.532Z,100.00
2022-09-25T08:28:40.765Z,99.61
2022-09-25T08:31:26.319Z,99.75
2022-09-25T08:34:38.980Z,95.11
2022-09-25T08:37:16.511Z,97.65
2022-09-25T08:40:01.743Z,95.29
2022-09-25T08:42:50.974Z,95.83
2022-09-25T08:45:43.077Z,97.05
2022-09-25T08:48:37.111Z,97.01
2022-09-25T08:51:22.525Z,96.51
2022-09-25T08:54:15.626Z,93.88
2022-09-25T08:57:11.916Z,92.93
2022-09-25T09:00:02.788Z,95.29
2022-09-25T09:02:58.696Z,95.55
2022-09-25T09:05:49.525Z,95.54
2022-09-25T09:08:40.300Z,95.95
2022-09-25T09:11:50.373Z,97.64
2022-09-25T09:14:42.562Z,96.28
2022-09-25T09:17:28.531Z,97.16
2022-09-25T09:20:17.473Z,95.45
2022-09-25T09:23:04.746Z,95.96
2022-09-25T09:26:47.526Z,95.24
2022-09-25T09:30:05.787Z,94.63
2022-09-25T09:33:01.702Z,98.15
2022-09-25T09:36:02.590Z,97.75
2022-09-25T09:38:50.945Z,97.33
2022-09-25T09:41:54.018Z,94.41
2022-09-25T09:44:45.178Z,94.96
2022-09-25T09:47:56.073Z,95.41
2022-09-25T09:50:52.812Z,95.32
2022-09-25T09:53:41.306Z,94.40
2022-09-25T09:56:31.242Z,93.93
2022-09-25T09:59:20.100Z,91.94
2022-09-25T10:02:18.428Z,92.50
2022-09-25T10:05:09.166Z,91.94
2022-09-25T10:07:54.293Z,91.92
2022-09-25T10:10:42.721Z,90.06
2022-09-25T10:13:33.624Z,88.38
2022-09-25T10:16:24.276Z,86.67
2022-09-25T10:19:25.848Z,85.03
2022-09-25T10:22:21.295Z,84.00
2022-09-25T10:25:06.845Z,83.56
2022-09-25T10:27:52.579Z,84.57
2022-09-25T10:30:46.123Z,87.12
2022-09-25T10:33:32.312Z,88.03
2022-09-25T10:36:31.688Z,87.26
2022-09-25T10:40:01.662Z,87.18
2022-09-25T10:42:46.754Z,86.55
2022-09-25T10:45:35.063Z,85.86
2022-09-25T10:48:47.612Z,85.70
2022-09-25T10:51:35.523Z,86.68
2022-09-25T10:54:21.048Z,86.19
2022-09-25T10:57:27.762Z,84.59
2022-09-25T11:00:24.380Z,85.44
2022-09-25T11:03:18.584Z,84.96
2022-09-25T11:06:28.870Z,85.23
2022-09-25T11:09:20.474Z,84.23
2022-09-25T11:12:22.400Z,85.32
2022-09-25T11:15:07.796Z,84.68
2022-09-25T11:17:57.005Z,84.66
2022-09-25T11:20:42.164Z,84.20
2022-09-25T11:24:12.737Z,85.43
2022-09-25T11:27:17.248Z,78.99
2022-09-25T11:30:08.293Z,78.26
2022-09-25T11:33:22.890Z,80.22
2022-09-25T11:36:20.502Z,79.47
2022-09-25T11:39:18.409Z,80.18
2022-09-25T11:42:26.470Z,80.80
2022-09-25T11:45:26.689Z,81.98
2022-09-25T11:48:30.803Z,80.64
2022-09-25T11:51:38.009Z,80.98
2022-09-25T11:54:38.670Z,80.78
2022-09-25T11:57:34.584Z,80.02
2022-09-25T12:00:21.392Z,80.49
2022-09-25T12:03:18.981Z,79.18
2022-09-25T12:06:22.184Z,80.29
2022-09-25T12:09:19.262Z,80.37
2022-09-25T12:12:29.457Z,80.93
2022-09-25T12:15:15.144Z,80.03
2022-09-25T12:18:19.357Z,78.45
2022-09-25T12:21:10.498Z,75.02
2022-09-25T12:24:16.026Z,77.51
2022-09-25T12:27:39.341Z,71.61
2022-09-25T12:30:47.365Z,71.22
2022-09-25T12:33:37.824Z,70.90
2022-09-25T12:36:29.234Z,72.88
2022-09-25T12:39:40.749Z,76.09
2022-09-25T12:42:42.522Z,77.06
2022-09-25T12:45:34.982Z,75.26
2022-09-25T12:48:31.432Z,76.07
2022-09-25T12:51:25.829Z,73.80
2022-09-25T12:54:37.684Z,73.88
2022-09-25T12:57:44.740Z,75.52
2022-09-25T13:00:32.842Z,72.97
2022-09-25T13:03:27.829Z,71.14
2022-09-25T13:06:39.378Z,69.91
2022-09-25T13:09:34.998Z,68.56
2022-09-25T13:12:39.477Z,67.27
2022-09-25T13:15:30.015Z,69.09
2022-09-25T13:18:21.411Z,68.55
2022-09-25T13:21:31.362Z,69.65
2022-09-25T13:24:18.143Z,67.64
2022-09-25T13:27:03.582Z,67.89
2022-09-25T13:29:56.526Z,69.02
2022-09-25T13:32:50.283Z,68.40
2022-09-25T13:35:35.778Z,66.97
2022-09-25T13:38:20.885Z,65.65
2022-09-25T13:41:13.739Z,65.94
2022-09-25T13:44:36.442Z,65.48
2022-09-25T13:47:21.684Z,64.87
2022-09-25T13:50:12.658Z,67.09
2022-09-25T13:53:00.694Z,69.08
2022-09-25T13:55:48.531Z,67.09
2022-09-25T13:59:19.598Z,65.22
2022-09-25T14:02:42.911Z,64.94
2022-09-25T14:05:31.463Z,63.74
2022-09-25T14:08:16.611Z,61.65
2022-09-25T14:11:04.975Z,60.80
2022-09-25T14:13:52.520Z,61.83
2022-09-25T14:16:46.166Z,60.97
2022-09-25T14:19:35.071Z,60.77
2022-09-25T14:22:29.261Z,61.83
2022-09-25T14:25:38.892Z,59.94
2022-09-25T14:28:27.361Z,60.72
2022-09-25T14:31:30.694Z,62.62
2022-09-25T14:34:37.381Z,62.45
2022-09-25T14:37:42.030Z,61.08
2022-09-25T14:40:36.070Z,62.42
2022-09-25T14:43:45.569Z,64.34
2022-09-25T14:46:31.627Z,61.78
2022-09-25T14:49:31.774Z,62.24
2022-09-25T14:52:22.577Z,63.22
2022-09-25T14:55:14.947Z,63.70
2022-09-25T14:58:01.335Z,62.97
2022-09-25T15:00:50.278Z,63.59
2022-09-25T15:03:40.905Z,61.83
2022-09-25T15:06:34.496Z,62.58
2022-09-25T15:09:30.531Z,61.15
2022-09-25T15:12:33.546Z,60.58
2022-09-25T15:15:18.675Z,61.54
2022-09-25T15:18:04.494Z,64.71
2022-09-25T15:20:49.882Z,61.42
2022-09-25T15:23:36.375Z,59.89
2022-09-25T15:26:22.059Z,58.49
2022-09-25T15:29:21.562Z,60.05
2022-09-25T15:32:06.860Z,60.92
2022-09-25T15:35:13.800Z,62.85
2022-09-25T15:38:13.945Z,62.92
2022-09-25T15:40:59.741Z,63.07
2022-09-25T15:43:45.048Z,63.40
2022-09-25T15:46:38.306Z,62.01
2022-09-25T15:49:32.028Z,60.55
2022-09-25T15:52:29.937Z,59.95
2022-09-25T15:55:17.358Z,63.44
2022-09-25T15:58:12.866Z,61.59
2022-09-25T16:01:01.336Z,59.52
2022-09-25T16:03:52.511Z,59.88
2022-09-25T16:06:40.644Z,61.09
2022-09-25T16:09:33.526Z,57.96
2022-09-25T16:12:26.355Z,53.44
2022-09-25T16:15:23.566Z,53.73
2022-09-25T16:18:35.398Z,53.76
2022-09-25T16:21:33.245Z,49.95
2022-09-25T16:24:28.982Z,50.35
2022-09-25T16:27:25.781Z,49.81
2022-09-25T16:30:22.531Z,55.91
2022-09-25T16:33:22.601Z,57.83
2022-09-25T16:36:16.922Z,57.53
2022-09-25T16:39:09.173Z,58.50
2022-09-25T16:41:55.750Z,62.43
2022-09-25T16:44:43.978Z,63.04
2022-09-25T16:47:29.711Z,63.66
2022-09-25T16:50:15.084Z,64.26
2022-09-25T16:53:00.410Z,64.61
2022-09-25T16:55:47.595Z,64.91
2022-09-25T16:58:34.754Z,65.63
2022-09-25T17:01:21.748Z,66.83
2022-09-25T17:04:08.933Z,68.25
2022-09-25T17:06:54.946Z,67.83
2022-09-25T17:09:39.932Z,69.04
2022-09-25T17:12:25.794Z,70.69
2022-09-25T17:15:20.442Z,71.66
2022-09-25T17:18:25.867Z,72.85
2022-09-25T17:21:14.004Z,73.30
2022-09-25T17:23:59.505Z,74.66
2022-09-25T17:26:45.308Z,73.48
2022-09-25T17:29:30.243Z,74.13
2022-09-25T17:32:15.825Z,74.51
2022-09-25T17:35:01.001Z,75.13
2022-09-25T17:37:46.326Z,74.93
2022-09-25T17:40:32.418Z,75.40
2022-09-25T17:43:18.458Z,76.31
2022-09-25T17:46:03.420Z,76.54
2022-09-25T17:48:53.849Z,75.83
2022-09-25T17:51:39.799Z,77.81
2022-09-25T17:54:24.709Z,75.65
2022-09-25T17:57:09.872Z,75.12
2022-09-25T17:59:54.974Z,75.52
2022-09-25T18:02:41.084Z,76.33
2022-09-25T18:05:27.064Z,75.80
2022-09-25T18:08:13.144Z,76.74
2022-09-25T18:10:58.855Z,76.62
2022-09-25T18:13:43.960Z,76.14
2022-09-25T18:16:31.562Z,77.52
2022-09-25T18:19:18.815Z,77.33
2022-09-25T18:22:04.588Z,77.38
2022-09-25T18:24:51.072Z,77.17
2022-09-25T18:27:39.567Z,77.22
2022-09-25T18:30:24.552Z,77.85
2022-09-25T18:33:10.101Z,79.59
2022-09-25T18:35:55.506Z,80.07
2022-09-25T18:38:41.765Z,79.75
2022-09-25T18:41:26.540Z,80.35
2022-09-25T18:44:11.589Z,79.82
2022-09-25T18:46:57.020Z,80.04
2022-09-25T18:49:42.215Z,81.02
2022-09-25T18:52:27.254Z,81.24
2022-09-25T18:55:12.242Z,82.65
2022-09-25T18:57:57.276Z,84.99
2022-09-25T19:00:42.134Z,86.14
2022-09-25T19:03:27.680Z,87.37
2022-09-25T19:06:13.050Z,87.17
2022-09-25T19:08:58.251Z,89.41
2022-09-25T19:11:43.333Z,90.85
2022-09-25T19:14:28.158Z,91.63
2022-09-25T19:17:14.869Z,92.07
2022-09-25T19:19:59.874Z,94.55
2022-09-25T19:22:44.926Z,93.56
2022-09-25T19:25:30.335Z,92.67
2022-09-25T19:28:15.869Z,92.93
2022-09-25T19:31:02.638Z,92.97
2022-09-25T19:33:48.036Z,94.32
2022-09-25T19:36:34.089Z,94.07
2022-09-25T19:39:19.503Z,94.06
2022-09-25T19:42:04.616Z,96.26
2022-09-25T19:44:49.820Z,98.13
2022-09-25T19:47:35.227Z,99.30
2022-09-25T19:50:20.530Z,100.00
2022-09-25T19:53:05.441Z,100.00
2022-09-25T19:55:51.800Z,100.00
2022-09-25T19:58:37.296Z,100.00
2022-09-25T20:01:27.971Z,100.00
2022-09-25T20:04:18.278Z,97.87
2022-09-25T20:07:03.942Z,98.80
2022-09-25T20:09:49.472Z,99.02
2022-09-25T20:12:34.390Z,99.16
2022-09-25T20:15:19.787Z,98.24
2022-09-25T20:18:05.653Z,96.41
2022-09-25T20:20:50.470Z,97.71
2022-09-25T20:23:35.850Z,98.39
2022-09-25T20:26:22.015Z,99.50
2022-09-25T20:29:11.468Z,100.00
2022-09-25T20:31:56.729Z,100.00
2022-09-25T20:34:41.725Z,100.00
2022-09-25T20:37:26.562Z,100.00
2022-09-25T20:40:11.585Z,100.00
2022-09-25T20:42:56.630Z,100.00
2022-09-25T20:45:42.155Z,100.00
2022-09-25T20:48:27.522Z,100.00
2022-09-25T20:51:15.510Z,100.00
2022-09-25T20:54:10.296Z,100.00
2022-09-25T20:56:55.629Z,100.00
2022-09-25T20:59:40.479Z,100.00
2022-09-25T21:02:25.556Z,100.00
2022-09-25T21:05:11.126Z,100.00
2022-09-25T21:07:56.389Z,100.00
2022-09-25T21:10:41.218Z,100.00
2022-09-25T21:13:27.589Z,100.00
2022-09-25T21:16:14.557Z,100.00
2022-09-25T21:19:02.694Z,100.00
2022-09-25T21:21:48.372Z,100.00
2022-09-25T21:24:33.281Z,100.00
2022-09-25T21:27:18.763Z,100.00
2022-09-25T21:30:04.523Z,100.00
2022-09-25T21:32:49.479Z,100.00
2022-09-25T21:35:34.537Z,100.00
2022-09-25T21:38:20.093Z,100.00
2022-09-25T21:41:08.155Z,100.00
2022-09-25T21:43:59.773Z,100.00
2022-09-25T21:46:45.053Z,100.00
2022-09-25T21:49:30.192Z,100.00
2022-09-25T21:52:15.384Z,100.00
2022-09-25T21:55:00.758Z,100.00
2022-09-25T21:57:45.605Z,100.00
2022-09-25T22:00:30.832Z,100.00
2022-09-25T22:03:15.699Z,100.00
2022-09-25T22:06:03.005Z,100.00
2022-09-25T22:08:52.402Z,100.00
2022-09-25T22:11:38.647Z,100.00
2022-09-25T22:14:23.826Z,100.00
2022-09-25T22:17:09.176Z,100.00
2022-09-25T22:19:54.372Z,100.00
2022-09-25T22:22:39.794Z,100.00
2022-09-25T22:25:24.616Z,100.00
2022-09-25T22:28:09.568Z,100.00
2022-09-25T22:30:55.221Z,100.00
2022-09-25T22:33:41.016Z,100.00
2022-09-25T22:36:26.930Z,100.00
2022-09-25T22:39:14.741Z,100.00
2022-09-25T22:42:00.508Z,100.00
2022-09-25T22:44:45.448Z,100.00
2022-09-25T22:47:31.353Z,100.00
2022-09-25T22:50:16.676Z,100.00
2022-09-25T22:53:01.684Z,100.00
2022-09-25T22:55:46.475Z,100.00
2022-09-25T22:58:31.462Z,100.00
2022-09-25T23:01:20.443Z,100.00
2022-09-25T23:04:10.687Z,100.00
2022-09-25T23:06:55.858Z,100.00
2022-09-25T23:09:41.145Z,100.00
2022-09-25T23:12:30.471Z,100.00
2022-09-25T23:15:16.170Z,100.00
2022-09-25T23:18:01.072Z,100.00
2022-09-25T23:20:54.533Z,100.00
2022-09-25T23:23:39.686Z,100.00
2022-09-25T23:26:25.898Z,100.00
2022-09-25T23:29:18.704Z,100.00
2022-09-25T23:32:03.803Z,100.00
2022-09-25T23:34:48.971Z,100.00
2022-09-25T23:37:34.377Z,100.00
2022-09-25T23:40:19.290Z,100.00
2022-09-25T23:43:04.822Z,100.00
2022-09-25T23:45:50.092Z,100.00
2022-09-25T23:48:35.261Z,100.00
2022-09-25T23:51:20.955Z,100.00
2022-09-25T23:54:06.512Z,100.00
2022-09-25T23:56:51.796Z,100.00
2022-09-25T23:59:37.117Z,100.00
